Fort Washakie, Wyoming
Current Conditions -  °F | °C
As of 10:14 PM on Tuesday 25 Nov 2014 (Local Time) from KRIW Reporting Station
Light Snow Light Snow  
Wind Chill: 19°   Ceiling: 3500
Heat Index: 26°   Visibility: 3mi
Dew Point: 24°   Wind: 6mph
Humidity: 92%   Direction: 30°NNE
Pressure: 30.11"   Gusts: NA
Location:  43.01°N, 108.88°W
Report Text: KRIW 260514Z AUTO 03005KT 3SM -SN BR OVC035 M03/M04 A3011 RMK AO2 P0001 T10331044
Loading
Personal Weather Stations






























Interactive Weather Map New forecast layout! Learn more

10-Day Weather Forecast

Advertisements
Track Severe Weather on mobile